CheckWX is a tool to help pilots better visualize weather data.  It is not intended as a substitute for an official pre-flight weather briefing.

07:46:48 UTC

LGLM TAF
Limnos Airport
Limnos Island, Greece
TAF LGLM 190500Z 1906/1915 04012KT 9999 FEW025 BECMG 1912/1914 33014KT

Jun-19@
06:00 UTC

Jun-19 @ 06:00 UTC

Jun-19@
12:00 UTC

Jun-19 @ 12:00 UTC

TAF LGLM 190500Z 1906/1915 04012KT 9999 FEW025
Wind
  • 040° at 12 KTS
Cloud Levels
  • Few at 2,500' AGL

Jun-19@
12:00 UTC

Jun-19 @ 12:00 UTC

Jun-19@
15:00 UTC

Jun-19 @ 15:00 UTC

BECMG 1912/1914 33014KT

Becoming

Becoming Conditions expected by Wed, Jun 19, 2019 @ 14:00 UTC

Wind
  • 330° at 14 KTS
Cloud Levels
  • Few at 2,500' AGL